Ash, North Carolina
Current Conditions -  °F | °C
As of 6:08 PM on Saturday 20 Dec 2014 (Local Time) from KCRE Reporting Station
Overcast Overcast  
Wind Chill: 41°   Ceiling: 2400
Heat Index: 45°   Visibility: 10mi
Dew Point: 42°   Wind: 8mph
Humidity: 90%   Direction: 30°NNE
Pressure: 30.23"   Gusts: NA
Location:  34.04°N, 78.52°W
Report Text: KCRE 202308Z 03007KT 10SM SCT010 BKN024 OVC048 07/06 A3023 RMK AO1 T00720056
Loading
Personal Weather Stations






























Interactive Weather Map New forecast layout! Learn more

10-Day Weather Forecast

Advertisements
Track Severe Weather on mobile